createdAt,value
2018-09-02T00:00:16.452Z,6.40
2018-09-02T00:01:16.409Z,6.30
2018-09-02T00:03:12.398Z,5.40
2018-09-02T00:04:12.344Z,5.70
2018-09-02T00:06:08.830Z,5.40
2018-09-02T00:07:08.267Z,5.60
2018-09-02T00:09:02.731Z,5.50
2018-09-02T00:10:02.695Z,5.40
2018-09-02T00:11:58.150Z,5.30
2018-09-02T00:12:57.126Z,5.70
2018-09-02T00:14:52.106Z,6.10
2018-09-02T00:15:52.080Z,6.00
2018-09-02T00:17:48.025Z,5.50
2018-09-02T00:18:48.011Z,5.70
2018-09-02T00:20:43.968Z,5.60
2018-09-02T00:21:43.433Z,5.50
2018-09-02T00:23:38.896Z,5.70
2018-09-02T00:24:37.887Z,5.40
2018-09-02T00:26:33.829Z,5.30
2018-09-02T00:27:32.831Z,5.20
2018-09-02T00:29:28.760Z,5.70
2018-09-02T00:30:28.262Z,6.10
2018-09-02T00:32:22.689Z,5.10
2018-09-02T00:33:22.789Z,4.80
2018-09-02T00:35:19.141Z,5.70
2018-09-02T00:36:18.621Z,5.40
2018-09-02T00:38:14.575Z,5.30
2018-09-02T00:39:15.082Z,5.40
2018-09-02T00:41:14.024Z,5.70
2018-09-02T00:42:13.521Z,5.80
2018-09-02T00:44:08.674Z,5.90
2018-09-02T00:45:08.651Z,5.80
2018-09-02T00:47:06.115Z,5.70
2018-09-02T00:48:04.593Z,5.60
2018-09-02T00:50:02.551Z,5.50
2018-09-02T00:51:03.047Z,5.30
2018-09-02T00:53:00.481Z,5.90
2018-09-02T00:53:58.469Z,5.50
2018-09-02T00:55:53.925Z,5.30
2018-09-02T00:56:52.886Z,5.30
2018-09-02T00:58:49.834Z,5.70
2018-09-02T00:59:48.852Z,5.90
2018-09-02T01:01:46.287Z,5.80
2018-09-02T01:02:44.784Z,5.30
2018-09-02T01:04:40.730Z,5.70
2018-09-02T01:05:40.714Z,5.30
2018-09-02T01:07:36.644Z,5.60
2018-09-02T01:08:36.648Z,5.60
2018-09-02T01:10:33.107Z,5.50
2018-09-02T01:11:32.585Z,5.40
2018-09-02T01:13:27.544Z,5.30
2018-09-02T01:14:27.006Z,5.10
2018-09-02T01:16:21.474Z,6.20
2018-09-02T01:17:20.406Z,6.30
2018-09-02T01:19:16.861Z,5.60
2018-09-02T01:20:16.881Z,5.60
2018-09-02T01:22:10.813Z,5.40
2018-09-02T01:23:10.990Z,5.20
2018-09-02T01:25:06.767Z,5.60
2018-09-02T01:26:07.266Z,5.50
2018-09-02T01:28:02.678Z,5.20
2018-09-02T01:29:01.166Z,5.20
2018-09-02T01:30:57.103Z,5.30
2018-09-02T01:31:57.616Z,5.30
2018-09-02T01:33:52.065Z,5.40
2018-09-02T01:34:51.552Z,4.90
2018-09-02T01:36:48.507Z,5.00
2018-09-02T01:37:47.505Z,5.70
2018-09-02T01:39:41.944Z,5.70
2018-09-02T01:40:41.927Z,5.10
2018-09-02T01:42:35.359Z,5.60
2018-09-02T01:43:35.876Z,5.40
2018-09-02T01:45:31.304Z,5.20
2018-09-02T01:46:30.316Z,5.00
2018-09-02T01:48:26.716Z,5.60
2018-09-02T01:49:25.711Z,5.50
2018-09-02T01:51:21.635Z,5.70
2018-09-02T01:52:21.628Z,5.60
2018-09-02T01:54:16.075Z,6.00
2018-09-02T01:55:16.069Z,5.60
2018-09-02T01:57:10.537Z,5.10
2018-09-02T01:58:10.497Z,5.40
2018-09-02T02:00:05.467Z,5.60
2018-09-02T02:01:04.926Z,5.50
2018-09-02T02:03:00.877Z,5.80
2018-09-02T02:05:17.307Z,5.40
2018-09-02T02:06:16.812Z,5.50
2018-09-02T02:08:12.784Z,5.80
2018-09-02T02:09:12.753Z,5.60
2018-09-02T02:11:08.673Z,5.30
2018-09-02T02:12:08.695Z,5.60
2018-09-02T02:14:06.647Z,5.10
2018-09-02T02:15:06.615Z,5.40
2018-09-02T02:17:01.042Z,5.50
2018-09-02T02:18:01.055Z,5.30
2018-09-02T02:19:57.495Z,5.90
2018-09-02T02:20:57.487Z,5.80
2018-09-02T02:22:51.402Z,5.50
2018-09-02T02:23:51.917Z,5.70
2018-09-02T02:25:47.308Z,6.40
2018-09-02T02:26:47.839Z,5.70
2018-09-02T02:28:42.266Z,6.10
2018-09-02T02:29:41.725Z,6.20
2018-09-02T02:31:37.667Z,5.70
2018-09-02T02:32:37.669Z,6.10
2018-09-02T02:34:34.125Z,5.10
2018-09-02T02:35:35.128Z,5.40
2018-09-02T02:37:28.085Z,5.70
2018-09-02T02:38:28.552Z,5.60
2018-09-02T02:40:22.470Z,5.60
2018-09-02T02:41:22.470Z,5.60
2018-09-02T02:43:18.917Z,6.10
2018-09-02T02:44:18.402Z,5.70
2018-09-02T02:46:14.406Z,5.80
2018-09-02T02:47:14.315Z,5.70
2018-09-02T02:49:10.289Z,5.70
2018-09-02T02:50:10.262Z,5.30
2018-09-02T02:52:07.239Z,5.20
2018-09-02T02:53:06.239Z,5.50
2018-09-02T02:55:01.657Z,5.70
2018-09-02T02:56:00.643Z,5.60
2018-09-02T02:57:58.623Z,5.90
2018-09-02T02:58:58.577Z,5.80
2018-09-02T03:00:55.531Z,6.10
2018-09-02T03:01:54.514Z,5.40
2018-09-02T03:03:48.990Z,5.50
2018-09-02T03:04:49.467Z,5.40
2018-09-02T03:06:44.898Z,6.40
2018-09-02T03:07:45.395Z,6.00
2018-09-02T03:09:39.844Z,6.50
2018-09-02T03:10:39.372Z,6.50
2018-09-02T03:12:37.786Z,5.60
2018-09-02T03:13:37.250Z,6.20
2018-09-02T03:15:33.235Z,5.80
2018-09-02T03:16:33.146Z,6.10
2018-09-02T03:18:29.065Z,6.10
2018-09-02T03:19:29.075Z,5.90
2018-09-02T03:21:25.016Z,5.70
2018-09-02T03:22:25.027Z,6.30
2018-09-02T03:24:20.968Z,5.70
2018-09-02T03:25:21.466Z,5.60
2018-09-02T03:27:16.916Z,5.90
2018-09-02T03:28:16.883Z,5.30
2018-09-02T03:30:11.835Z,6.10
2018-09-02T03:31:11.328Z,6.20
2018-09-02T03:33:06.769Z,6.30
2018-09-02T03:34:05.758Z,6.40
2018-09-02T03:36:02.709Z,6.00
2018-09-02T03:37:02.209Z,5.60
2018-09-02T03:38:58.126Z,5.80
2018-09-02T03:39:57.597Z,5.60
2018-09-02T03:41:54.049Z,5.60
2018-09-02T03:42:53.533Z,6.00
2018-09-02T03:44:49.994Z,6.10
2018-09-02T03:45:49.480Z,6.00
2018-09-02T03:47:45.447Z,6.40
2018-09-02T03:48:45.411Z,6.20
2018-09-02T03:50:41.367Z,6.20
2018-09-02T03:51:39.841Z,6.20
2018-09-02T03:53:36.294Z,6.10
2018-09-02T03:54:37.296Z,6.20
2018-09-02T03:56:32.748Z,6.10
2018-09-02T03:57:32.736Z,5.60
2018-09-02T03:59:27.696Z,6.40
2018-09-02T04:00:26.692Z,5.30
2018-09-02T04:02:22.168Z,5.70
2018-09-02T04:03:22.104Z,5.70
2018-09-02T04:05:18.050Z,6.00
2018-09-02T04:06:18.040Z,6.10
2018-09-02T04:08:13.014Z,6.70
2018-09-02T04:09:12.505Z,6.30
2018-09-02T04:11:08.506Z,6.10
2018-09-02T04:12:09.364Z,5.90
2018-09-02T04:14:02.894Z,6.60
2018-09-02T04:15:02.881Z,6.20
2018-09-02T04:16:58.795Z,6.50
2018-09-02T04:17:58.791Z,6.20
2018-09-02T04:19:54.245Z,5.70
2018-09-02T04:20:53.746Z,6.30
2018-09-02T04:22:49.185Z,6.10
2018-09-02T04:23:49.679Z,6.50
2018-09-02T04:25:45.105Z,6.70
2018-09-02T04:26:45.063Z,7.20
2018-09-02T04:28:41.518Z,6.30
2018-09-02T04:29:40.994Z,6.70
2018-09-02T04:31:35.423Z,6.00
2018-09-02T04:32:35.953Z,6.50
2018-09-02T04:34:28.899Z,6.70
2018-09-02T04:35:28.882Z,6.50
2018-09-02T04:37:27.839Z,6.80
2018-09-02T04:38:27.823Z,6.80
2018-09-02T04:40:22.949Z,6.40
2018-09-02T04:41:22.898Z,6.20
2018-09-02T04:43:20.360Z,6.60
2018-09-02T04:44:19.036Z,6.50
2018-09-02T04:46:13.431Z,6.10
2018-09-02T04:47:13.433Z,6.70
2018-09-02T04:49:07.854Z,7.10
2018-09-02T04:50:07.865Z,7.10
2018-09-02T04:52:02.325Z,7.00
2018-09-02T04:53:02.311Z,7.00
2018-09-02T04:54:57.252Z,7.00
2018-09-02T04:55:57.682Z,7.10
2018-09-02T04:57:53.701Z,6.50
2018-09-02T04:58:52.688Z,6.50
2018-09-02T05:00:47.636Z,6.40
2018-09-02T05:01:47.643Z,7.30
2018-09-02T05:03:41.068Z,6.50
2018-09-02T05:05:56.993Z,6.10
2018-09-02T05:06:56.461Z,6.50
2018-09-02T05:08:52.908Z,7.20
2018-09-02T05:09:50.896Z,6.70
2018-09-02T05:11:46.346Z,6.40
2018-09-02T05:12:45.349Z,6.40
2018-09-02T05:14:42.221Z,6.70
2018-09-02T05:15:41.270Z,7.30
2018-09-02T05:17:37.727Z,6.90
2018-09-02T05:18:38.162Z,7.00
2018-09-02T05:20:33.192Z,6.60
2018-09-02T05:21:33.672Z,6.70
2018-09-02T05:23:28.113Z,6.80
2018-09-02T05:24:28.102Z,6.70
2018-09-02T05:26:24.016Z,6.80
2018-09-02T05:27:23.496Z,6.80
2018-09-02T05:29:16.919Z,6.80
2018-09-02T05:30:16.930Z,6.90
2018-09-02T05:32:11.883Z,6.50
2018-09-02T05:33:11.886Z,6.60
2018-09-02T05:35:07.353Z,6.60
2018-09-02T05:36:07.316Z,6.60
2018-09-02T05:38:03.782Z,6.80
2018-09-02T05:39:03.253Z,7.00
2018-09-02T05:41:00.198Z,7.20
2018-09-02T05:41:59.207Z,6.70
2018-09-02T05:43:55.659Z,6.90
2018-09-02T05:44:55.111Z,7.00
2018-09-02T05:46:49.569Z,6.50
2018-09-02T05:47:49.552Z,6.70
2018-09-02T05:49:47.528Z,6.80
2018-09-02T05:50:45.484Z,6.80
2018-09-02T05:52:39.917Z,6.70
2018-09-02T05:53:39.920Z,6.70
2018-09-02T05:55:36.384Z,7.10
2018-09-02T05:56:36.387Z,7.30
2018-09-02T05:58:30.292Z,7.10
2018-09-02T05:59:30.271Z,7.10
2018-09-02T06:01:24.693Z,7.50
2018-09-02T06:02:25.222Z,7.40
2018-09-02T06:04:20.672Z,7.20
2018-09-02T06:05:21.156Z,7.60
2018-09-02T06:07:15.574Z,7.00
2018-09-02T06:08:14.075Z,6.90
2018-09-02T06:10:07.528Z,7.60
2018-09-02T06:11:07.501Z,8.30
2018-09-02T06:13:02.441Z,7.80
2018-09-02T06:14:01.916Z,7.60
2018-09-02T06:15:58.373Z,7.10
2018-09-02T06:16:57.836Z,7.60
2018-09-02T06:18:52.779Z,8.00
2018-09-02T06:19:52.268Z,8.00
2018-09-02T06:21:50.164Z,8.00
2018-09-02T06:24:04.163Z,8.40
2018-09-02T06:25:04.189Z,8.30
2018-09-02T06:28:31.927Z,7.70
2018-09-02T06:29:31.926Z,8.10
2018-09-02T06:31:27.325Z,8.60
2018-09-02T06:32:27.855Z,8.40
2018-09-02T06:34:23.300Z,7.60
2018-09-02T06:35:23.334Z,7.80
2018-09-02T06:37:19.193Z,7.70
2018-09-02T06:38:19.706Z,8.20
2018-09-02T06:40:13.650Z,8.90
2018-09-02T06:41:13.644Z,8.50
2018-09-02T06:43:08.614Z,8.30
2018-09-02T06:44:08.082Z,8.80
2018-09-02T06:46:04.050Z,7.70
2018-09-02T06:47:03.988Z,7.60
2018-09-02T06:48:58.443Z,8.20
2018-09-02T06:49:58.414Z,8.70
2018-09-02T06:51:54.370Z,8.90
2018-09-02T06:52:52.861Z,9.30
2018-09-02T06:54:48.813Z,9.00
2018-09-02T06:55:48.809Z,9.50
2018-09-02T06:57:44.771Z,9.10
2018-09-02T06:58:44.758Z,9.30
2018-09-02T07:00:39.706Z,9.10
2018-09-02T07:01:39.706Z,9.00
2018-09-02T07:03:36.152Z,9.80
2018-09-02T07:04:35.646Z,9.70
2018-09-02T07:06:32.104Z,9.30
2018-09-02T07:07:31.146Z,9.40
2018-09-02T07:09:25.573Z,9.10
2018-09-02T07:10:24.538Z,9.60
2018-09-02T07:12:19.002Z,9.00
2018-09-02T07:13:18.961Z,8.90
2018-09-02T07:15:13.921Z,9.10
2018-09-02T07:16:14.431Z,9.40
2018-09-02T07:18:07.917Z,8.90
2018-09-02T07:19:08.385Z,10.50
2018-09-02T07:21:02.827Z,9.20
2018-09-02T07:22:02.323Z,8.60
2018-09-02T07:23:58.773Z,9.70
2018-09-02T07:24:58.250Z,9.30
2018-09-02T07:26:54.208Z,9.20
2018-09-02T07:27:54.209Z,9.00
2018-09-02T07:29:48.629Z,9.80
2018-09-02T07:30:48.652Z,9.80
2018-09-02T07:32:45.627Z,11.40
2018-09-02T07:33:45.608Z,9.00
2018-09-02T07:35:40.551Z,8.30
2018-09-02T07:36:39.566Z,8.90
2018-09-02T07:38:38.468Z,8.70
2018-09-02T07:39:37.968Z,8.50
2018-09-02T07:41:33.576Z,8.70
2018-09-02T07:42:33.584Z,8.90
2018-09-02T07:44:28.042Z,9.40
2018-09-02T07:45:27.555Z,9.60
2018-09-02T07:47:21.467Z,8.60
2018-09-02T07:48:20.963Z,8.40
2018-09-02T07:50:18.934Z,9.00
2018-09-02T07:51:18.903Z,8.90
2018-09-02T07:53:14.871Z,8.70
2018-09-02T07:54:14.835Z,8.50
2018-09-02T07:56:10.807Z,8.30
2018-09-02T07:57:10.746Z,8.80
2018-09-02T07:59:04.719Z,8.20
2018-09-02T08:00:04.696Z,8.10
2018-09-02T08:02:00.151Z,7.90
2018-09-02T08:03:00.129Z,8.00
2018-09-02T08:04:54.106Z,8.50
2018-09-02T08:05:54.510Z,8.00
2018-09-02T08:07:49.541Z,8.90
2018-09-02T08:08:50.047Z,9.10
2018-09-02T08:10:47.966Z,8.90
2018-09-02T08:11:47.445Z,8.70
2018-09-02T08:13:41.896Z,8.40
2018-09-02T08:14:41.899Z,8.40
2018-09-02T08:16:38.851Z,8.00
2018-09-02T08:17:37.829Z,8.30
2018-09-02T08:19:34.293Z,7.80
2018-09-02T08:20:33.787Z,7.30
2018-09-02T08:22:27.220Z,7.10
2018-09-02T08:23:27.220Z,7.20
2018-09-02T08:25:23.198Z,7.20
2018-09-02T08:26:23.126Z,7.00
2018-09-02T08:28:19.107Z,6.90
2018-09-02T08:29:20.083Z,7.00
2018-09-02T08:31:15.110Z,6.90
2018-09-02T08:32:15.066Z,7.10
2018-09-02T08:34:12.028Z,6.70
2018-09-02T08:35:11.530Z,7.10
2018-09-02T08:37:05.454Z,7.00
2018-09-02T08:38:05.458Z,6.80
2018-09-02T08:40:00.434Z,6.40
2018-09-02T08:41:00.431Z,7.70
2018-09-02T08:42:55.840Z,7.00
2018-09-02T08:43:55.846Z,6.40
2018-09-02T08:45:50.265Z,6.40
2018-09-02T08:46:50.287Z,6.60
2018-09-02T08:48:45.729Z,6.40
2018-09-02T08:49:44.730Z,6.50
2018-09-02T08:51:41.178Z,6.40
2018-09-02T08:52:40.689Z,6.40
2018-09-02T08:54:36.609Z,6.60
2018-09-02T08:55:36.615Z,6.10
2018-09-02T08:57:32.586Z,6.30
2018-09-02T08:58:32.558Z,6.20
2018-09-02T09:00:27.542Z,6.00
2018-09-02T09:01:27.008Z,5.60
2018-09-02T09:03:21.999Z,5.60
2018-09-02T09:04:21.480Z,5.60
2018-09-02T09:06:18.453Z,6.60
2018-09-02T09:07:15.901Z,5.70
2018-09-02T09:09:09.995Z,5.90
2018-09-02T09:10:09.870Z,5.80
2018-09-02T09:12:04.308Z,5.00
2018-09-02T09:13:03.795Z,4.70
2018-09-02T09:14:57.294Z,4.70
2018-09-02T09:15:57.766Z,4.80
2018-09-02T09:17:53.226Z,5.00
2018-09-02T09:18:53.220Z,4.80
2018-09-02T09:20:47.687Z,5.40
2018-09-02T09:21:47.649Z,5.20
2018-09-02T09:23:42.151Z,4.60
2018-09-02T09:24:42.114Z,5.00
2018-09-02T09:26:38.585Z,4.80
2018-09-02T09:27:38.081Z,4.70
2018-09-02T09:29:34.008Z,4.70
2018-09-02T09:30:35.527Z,4.60
2018-09-02T09:32:33.473Z,4.60
2018-09-02T09:33:31.980Z,4.70
2018-09-02T09:35:27.947Z,5.10
2018-09-02T09:36:27.877Z,5.10
2018-09-02T09:38:22.360Z,4.80
2018-09-02T09:39:22.316Z,5.00
2018-09-02T09:41:19.285Z,4.90
2018-09-02T09:42:18.277Z,4.80
2018-09-02T09:44:12.752Z,4.20
2018-09-02T09:45:13.227Z,4.40
2018-09-02T09:47:07.155Z,4.50
2018-09-02T09:48:07.178Z,4.50
2018-09-02T09:50:02.128Z,4.90
2018-09-02T09:52:16.569Z,5.40
2018-09-02T09:53:16.061Z,4.60
2018-09-02T09:55:12.024Z,4.60
2018-09-02T09:56:12.030Z,4.60
2018-09-02T09:58:07.489Z,4.50
2018-09-02T09:59:06.998Z,4.80
2018-09-02T10:00:59.939Z,4.90
2018-09-02T10:01:59.916Z,4.90
2018-09-02T10:03:55.908Z,4.80
2018-09-02T10:04:56.812Z,5.00
2018-09-02T10:06:50.820Z,4.20
2018-09-02T10:07:50.316Z,5.20
2018-09-02T10:09:46.305Z,4.10
2018-09-02T10:10:46.282Z,4.10
2018-09-02T10:12:42.233Z,3.80
2018-09-02T10:13:42.256Z,3.70
2018-09-02T10:15:40.697Z,4.10
2018-09-02T10:16:40.167Z,4.10
2018-09-02T10:18:36.152Z,4.20
2018-09-02T10:19:36.134Z,4.10
2018-09-02T10:21:32.103Z,3.90
2018-09-02T10:22:32.070Z,3.60
2018-09-02T10:24:28.547Z,4.00
2018-09-02T10:25:28.018Z,3.90
2018-09-02T10:27:25.495Z,3.60
2018-09-02T10:28:24.491Z,3.80
2018-09-02T10:30:19.937Z,3.90
2018-09-02T10:31:19.917Z,3.50
2018-09-02T10:33:15.967Z,4.00
2018-09-02T10:34:16.399Z,4.40
2018-09-02T10:36:11.849Z,3.90
2018-09-02T10:37:11.816Z,3.90
2018-09-02T10:39:08.272Z,3.80
2018-09-02T10:40:07.778Z,3.90
2018-09-02T10:42:04.248Z,4.30
2018-09-02T10:43:03.732Z,4.00
2018-09-02T10:44:58.698Z,4.20
2018-09-02T10:45:58.197Z,4.20
2018-09-02T10:47:54.145Z,3.60
2018-09-02T10:48:54.158Z,4.30
2018-09-02T10:50:48.606Z,4.20
2018-09-02T10:51:48.590Z,4.00
2018-09-02T10:53:43.579Z,4.00
2018-09-02T10:54:43.043Z,3.80
2018-09-02T10:56:38.011Z,3.80
2018-09-02T10:57:37.510Z,4.10
2018-09-02T10:59:33.475Z,3.90
2018-09-02T11:00:33.468Z,4.20
2018-09-02T11:02:30.418Z,4.20
2018-09-02T11:03:29.927Z,4.70
2018-09-02T11:05:25.408Z,4.30
2018-09-02T11:06:25.352Z,4.50
2018-09-02T11:08:21.342Z,4.00
2018-09-02T11:09:21.338Z,4.10
2018-09-02T11:11:17.250Z,4.10
2018-09-02T11:12:17.276Z,4.20
2018-09-02T11:14:12.715Z,4.00
2018-09-02T11:15:12.222Z,4.50
2018-09-02T11:17:07.656Z,3.90
2018-09-02T11:18:09.179Z,4.20
2018-09-02T11:20:03.643Z,4.50
2018-09-02T11:21:03.659Z,4.10
2018-09-02T11:22:59.632Z,4.30
2018-09-02T11:23:59.599Z,4.30
2018-09-02T11:25:57.070Z,4.40
2018-09-02T11:26:56.061Z,4.40
2018-09-02T11:28:53.494Z,4.20
2018-09-02T11:29:54.415Z,4.10
2018-09-02T11:31:50.431Z,3.90
2018-09-02T11:32:49.427Z,3.90
2018-09-02T11:34:45.384Z,4.00
2018-09-02T11:35:45.885Z,4.20
2018-09-02T11:37:39.878Z,4.40
2018-09-02T11:38:39.893Z,4.40
2018-09-02T11:40:35.912Z,4.40
2018-09-02T11:41:35.873Z,4.20
2018-09-02T11:43:31.867Z,4.00
2018-09-02T11:44:31.853Z,4.30
2018-09-02T11:46:27.817Z,4.10
2018-09-02T11:47:28.811Z,4.00
2018-09-02T11:49:24.301Z,4.30
2018-09-02T11:50:23.802Z,4.70
2018-09-02T11:52:19.756Z,3.80
2018-09-02T11:53:21.256Z,4.10
2018-09-02T11:55:18.770Z,3.90
2018-09-02T11:56:17.905Z,3.60
2018-09-02T11:58:13.307Z,3.80
2018-09-02T11:59:12.371Z,3.90
2018-09-02T12:01:08.331Z,4.10
2018-09-02T12:02:08.343Z,4.20
2018-09-02T12:04:04.377Z,4.20
2018-09-02T12:05:04.798Z,3.50
2018-09-02T12:07:01.253Z,4.60
2018-09-02T12:08:00.262Z,4.10
2018-09-02T12:09:56.210Z,3.90
2018-09-02T12:10:56.727Z,4.30
2018-09-02T12:12:52.190Z,3.90
2018-09-02T12:13:52.214Z,3.70
2018-09-02T12:15:48.147Z,3.50
2018-09-02T12:16:48.649Z,4.00
2018-09-02T12:18:44.057Z,3.70
2018-09-02T12:19:44.568Z,3.30
2018-09-02T12:21:40.039Z,4.00
2018-09-02T12:22:40.025Z,3.70
2018-09-02T12:24:38.493Z,3.80
2018-09-02T12:25:38.169Z,3.70
2018-09-02T12:27:35.136Z,3.70
2018-09-02T12:28:34.144Z,3.70
2018-09-02T12:30:31.102Z,3.40
2018-09-02T12:31:30.150Z,3.60
2018-09-02T12:33:26.613Z,4.10
2018-09-02T12:35:41.983Z,3.50
2018-09-02T12:36:42.006Z,3.90
2018-09-02T12:38:38.001Z,3.70
2018-09-02T12:39:37.973Z,3.40
2018-09-02T12:41:34.923Z,3.60
2018-09-02T12:42:33.922Z,3.70
2018-09-02T12:44:29.927Z,3.50
2018-09-02T12:45:30.409Z,3.60
2018-09-02T12:47:24.375Z,3.50
2018-09-02T12:48:24.365Z,3.40
2018-09-02T12:50:20.296Z,3.60
2018-09-02T12:51:20.318Z,4.00
2018-09-02T12:53:16.293Z,3.90
2018-09-02T12:54:16.339Z,3.40
2018-09-02T12:56:14.350Z,3.60
2018-09-02T12:57:14.380Z,3.50
2018-09-02T12:59:09.823Z,3.30
2018-09-02T13:00:08.846Z,3.60
2018-09-02T13:02:03.311Z,3.60
2018-09-02T13:03:03.293Z,3.50
2018-09-02T13:05:01.247Z,3.20
2018-09-02T13:06:01.247Z,2.80
2018-09-02T13:07:58.699Z,3.30
2018-09-02T13:08:57.202Z,3.30
2018-09-02T13:10:53.150Z,3.40
2018-09-02T13:11:53.663Z,3.30
2018-09-02T13:13:49.620Z,3.60
2018-09-02T13:14:49.118Z,2.80
2018-09-02T13:16:45.093Z,3.20
2018-09-02T13:17:45.068Z,3.10
2018-09-02T13:19:40.036Z,3.10
2018-09-02T13:20:39.529Z,3.10
2018-09-02T13:22:36.987Z,3.40
2018-09-02T13:23:35.483Z,3.20
2018-09-02T13:25:31.409Z,3.10
2018-09-02T13:26:31.427Z,3.00
2018-09-02T13:28:27.382Z,3.00
2018-09-02T13:29:27.884Z,3.30
2018-09-02T13:31:22.826Z,3.30
2018-09-02T13:32:21.835Z,3.50
2018-09-02T13:34:17.796Z,3.40
2018-09-02T13:35:19.278Z,3.30
2018-09-02T13:37:14.760Z,2.80
2018-09-02T13:38:13.736Z,2.90
2018-09-02T13:40:09.740Z,3.10
2018-09-02T13:41:09.711Z,3.10
2018-09-02T13:43:05.680Z,3.30
2018-09-02T13:44:05.674Z,3.30
2018-09-02T13:46:01.666Z,3.10
2018-09-02T13:47:01.602Z,3.20
2018-09-02T13:48:57.550Z,3.10
2018-09-02T13:49:57.550Z,3.00
2018-09-02T13:51:52.029Z,2.90
2018-09-02T13:52:52.520Z,3.10
2018-09-02T13:54:48.092Z,2.80
2018-09-02T13:55:47.977Z,3.20
2018-09-02T13:57:44.872Z,2.90
2018-09-02T13:58:44.864Z,2.80
2018-09-02T14:00:40.427Z,4.10
2018-09-02T14:01:39.903Z,3.20
2018-09-02T14:03:34.366Z,3.30
2018-09-02T14:04:35.364Z,2.80
2018-09-02T14:06:30.838Z,2.90
2018-09-02T14:07:28.836Z,2.80
2018-09-02T14:09:27.308Z,3.30
2018-09-02T14:10:27.009Z,3.20
2018-09-02T14:12:20.479Z,3.00
2018-09-02T14:13:20.958Z,2.80
2018-09-02T14:15:16.439Z,2.80
2018-09-02T14:16:16.413Z,3.10
2018-09-02T14:18:12.408Z,3.10
2018-09-02T14:19:13.376Z,3.20
2018-09-02T14:21:07.839Z,2.80
2018-09-02T14:22:08.348Z,3.00
2018-09-02T14:24:00.344Z,3.00
2018-09-02T14:25:00.315Z,2.80
2018-09-02T14:26:57.764Z,3.10
2018-09-02T14:27:57.204Z,2.90
2018-09-02T14:29:53.244Z,3.20
2018-09-02T14:30:52.243Z,2.90
2018-09-02T14:32:50.725Z,2.90
2018-09-02T14:33:50.213Z,3.00
2018-09-02T14:35:46.114Z,2.80
2018-09-02T14:36:46.667Z,3.20
2018-09-02T14:38:43.098Z,3.00
2018-09-02T14:39:42.106Z,3.10
2018-09-02T14:41:38.053Z,2.90
2018-09-02T14:42:38.050Z,2.80
2018-09-02T14:44:35.041Z,2.60
2018-09-02T14:45:34.016Z,3.10
2018-09-02T14:47:30.007Z,2.70
2018-09-02T14:48:30.000Z,2.60
2018-09-02T14:50:26.455Z,2.70
2018-09-02T14:51:24.450Z,2.90
2018-09-02T14:53:20.432Z,2.70
2018-09-02T14:54:20.465Z,2.80
2018-09-02T14:56:16.869Z,2.80
2018-09-02T14:57:16.347Z,3.00
2018-09-02T14:59:12.290Z,2.80
2018-09-02T15:00:12.299Z,2.80
2018-09-02T15:02:09.270Z,2.90
2018-09-02T15:03:08.276Z,3.00
2018-09-02T15:05:04.770Z,2.90
2018-09-02T15:06:04.251Z,2.90
2018-09-02T15:08:00.218Z,2.50
2018-09-02T15:09:00.216Z,2.70
2018-09-02T15:10:56.163Z,2.70
2018-09-02T15:11:56.166Z,3.20
2018-09-02T15:13:52.138Z,2.70
2018-09-02T15:14:52.156Z,2.40
2018-09-02T15:16:51.602Z,2.80
2018-09-02T15:17:48.101Z,3.00
2018-09-02T15:19:45.062Z,3.20
2018-09-02T15:20:44.564Z,2.80
2018-09-02T15:22:40.032Z,2.60
2018-09-02T15:23:40.032Z,2.80
2018-09-02T15:25:38.765Z,2.90
2018-09-02T15:27:52.444Z,3.00
2018-09-02T15:30:10.427Z,3.60
2018-09-02T15:31:10.140Z,3.70
2018-09-02T15:33:14.088Z,4.50
2018-09-02T15:34:15.648Z,3.20
2018-09-02T15:36:19.043Z,3.10
2018-09-02T15:37:18.516Z,2.80
2018-09-02T15:39:19.058Z,3.20
2018-09-02T15:40:19.563Z,2.80
2018-09-02T15:42:20.949Z,3.10
2018-09-02T15:43:20.299Z,3.00
2018-09-02T15:45:18.235Z,3.60
2018-09-02T15:47:39.717Z,3.60
2018-09-02T15:48:39.258Z,3.90
2018-09-02T15:50:41.617Z,3.60
2018-09-02T15:51:39.182Z,3.30
2018-09-02T15:53:44.170Z,2.90
2018-09-02T15:56:05.328Z,3.00
2018-09-02T15:57:04.170Z,3.00
2018-09-02T16:00:40.145Z,3.10
2018-09-02T16:01:55.729Z,2.60
2018-09-02T16:03:36.041Z,2.90
2018-09-02T16:06:11.308Z,3.30
2018-09-02T16:06:56.230Z,3.00
2018-09-02T16:08:56.696Z,3.00
2018-09-02T16:09:56.178Z,3.10
2018-09-02T16:11:57.311Z,3.20
2018-09-02T16:12:57.068Z,3.50
2018-09-02T16:14:57.466Z,2.90
2018-09-02T16:15:57.967Z,3.30
2018-09-02T16:19:33.632Z,2.80
2018-09-02T16:20:32.664Z,2.80
2018-09-02T16:22:32.392Z,3.30
2018-09-02T16:23:33.277Z,3.30
2018-09-02T16:25:32.770Z,3.30
2018-09-02T16:26:33.232Z,3.00
2018-09-02T16:28:32.192Z,4.70
2018-09-02T16:29:31.766Z,3.40
2018-09-02T16:31:29.349Z,3.40
2018-09-02T16:32:27.823Z,3.60
2018-09-02T16:34:30.318Z,3.70
2018-09-02T16:35:29.326Z,3.60
2018-09-02T16:37:30.270Z,3.10
2018-09-02T16:38:32.765Z,4.10
2018-09-02T16:40:27.734Z,3.60
2018-09-02T16:41:27.809Z,3.70
2018-09-02T16:43:28.717Z,3.40
2018-09-02T16:44:28.697Z,3.40
2018-09-02T16:46:26.153Z,4.10
2018-09-02T16:47:26.217Z,4.20
2018-09-02T16:49:24.727Z,3.80
2018-09-02T16:50:24.667Z,3.50
2018-09-02T16:52:22.094Z,4.30
2018-09-02T16:53:23.143Z,4.30
2018-09-02T16:55:23.073Z,3.70
2018-09-02T16:56:22.551Z,3.40
2018-09-02T16:58:20.516Z,3.50
2018-09-02T16:59:20.568Z,3.30
2018-09-02T17:01:16.487Z,3.60
2018-09-02T17:02:16.499Z,4.00
2018-09-02T17:04:17.506Z,4.00
2018-09-02T17:05:17.501Z,4.00
2018-09-02T17:07:17.426Z,3.90
2018-09-02T17:08:17.430Z,3.70
2018-09-02T17:10:15.551Z,3.90
2018-09-02T17:11:15.527Z,3.90
2018-09-02T17:13:11.491Z,3.60
2018-09-02T17:14:11.530Z,3.80
2018-09-02T17:16:07.447Z,3.50
2018-09-02T17:17:07.458Z,3.80
2018-09-02T17:19:04.556Z,3.90
2018-09-02T17:20:04.433Z,3.40
2018-09-02T17:22:03.885Z,3.90
2018-09-02T17:23:03.946Z,3.40
2018-09-02T17:25:00.838Z,3.60
2018-09-02T17:25:59.877Z,3.60
2018-09-02T17:27:55.838Z,3.40
2018-09-02T17:28:56.843Z,3.20
2018-09-02T17:30:55.303Z,3.40
2018-09-02T17:31:54.841Z,3.20
2018-09-02T17:34:01.964Z,3.80
2018-09-02T17:35:01.522Z,3.30
2018-09-02T17:37:04.731Z,3.90
2018-09-02T17:38:06.412Z,3.30
2018-09-02T17:40:02.209Z,3.30
2018-09-02T17:41:00.686Z,3.40
2018-09-02T17:43:01.188Z,3.10
2018-09-02T17:44:01.184Z,3.00
2018-09-02T17:46:00.702Z,3.30
2018-09-02T17:47:00.156Z,3.30
2018-09-02T17:48:57.265Z,3.10
2018-09-02T17:49:57.236Z,3.40
2018-09-02T17:51:56.845Z,3.10
2018-09-02T17:52:55.368Z,3.50
2018-09-02T17:54:51.385Z,3.40
2018-09-02T17:55:51.405Z,3.40
2018-09-02T17:57:50.280Z,3.30
2018-09-02T17:58:50.282Z,3.40
2018-09-02T18:00:49.981Z,3.60
2018-09-02T18:01:50.004Z,3.30
2018-09-02T18:03:50.375Z,3.40
2018-09-02T18:04:51.938Z,3.20
2018-09-02T18:06:52.780Z,3.00
2018-09-02T18:07:51.824Z,3.10
2018-09-02T18:09:51.827Z,3.40
2018-09-02T18:10:49.988Z,3.10
2018-09-02T18:12:49.466Z,3.60
2018-09-02T18:13:50.034Z,3.50
2018-09-02T18:15:46.037Z,3.50
2018-09-02T18:16:46.032Z,3.20
2018-09-02T18:18:42.999Z,3.50
2018-09-02T18:19:42.506Z,3.30
2018-09-02T18:21:37.991Z,3.20
2018-09-02T18:22:38.477Z,3.30
2018-09-02T18:24:34.917Z,3.00
2018-09-02T18:26:50.852Z,3.10
2018-09-02T18:27:50.888Z,3.50
2018-09-02T18:29:46.867Z,3.30
2018-09-02T18:30:46.840Z,2.90
2018-09-02T18:32:45.094Z,3.40
2018-09-02T18:33:45.891Z,3.30
2018-09-02T18:35:43.439Z,3.00
2018-09-02T18:36:43.607Z,3.40
2018-09-02T18:38:39.890Z,2.60
2018-09-02T18:39:39.910Z,2.90
2018-09-02T18:41:40.270Z,2.90
2018-09-02T18:42:40.856Z,2.70
2018-09-02T18:44:41.244Z,3.60
2018-09-02T18:45:40.772Z,4.60
2018-09-02T18:47:40.226Z,3.00
2018-09-02T18:48:39.228Z,3.50
2018-09-02T18:50:40.172Z,3.20
2018-09-02T18:51:41.083Z,2.50
2018-09-02T18:53:37.662Z,3.80
2018-09-02T18:54:38.159Z,3.00
2018-09-02T18:56:37.582Z,2.70
2018-09-02T18:57:37.620Z,2.70
2018-09-02T18:59:37.127Z,2.90
2018-09-02T19:00:35.558Z,2.80
2018-09-02T19:02:36.130Z,2.90
2018-09-02T19:03:36.002Z,3.00
2018-09-02T19:05:36.969Z,3.30
2018-09-02T19:06:38.009Z,3.30
2018-09-02T19:08:38.564Z,3.00
2018-09-02T19:09:38.411Z,3.10
2018-09-02T19:11:38.886Z,3.50
2018-09-02T19:12:39.884Z,3.10
2018-09-02T19:14:51.460Z,3.50
2018-09-02T19:15:51.442Z,3.20
2018-09-02T19:17:51.969Z,3.00
2018-09-02T19:19:05.870Z,3.30
2018-09-02T19:20:47.778Z,3.10
2018-09-02T19:21:47.828Z,2.80
2018-09-02T19:23:44.313Z,2.80
2018-09-02T19:24:43.725Z,3.00
2018-09-02T19:26:39.689Z,3.60
2018-09-02T19:27:40.192Z,3.00
2018-09-02T19:29:34.157Z,3.00
2018-09-02T19:30:34.121Z,3.70
2018-09-02T19:32:30.090Z,2.80
2018-09-02T19:33:30.087Z,2.90
2018-09-02T19:35:26.009Z,2.70
2018-09-02T19:36:26.017Z,3.20
2018-09-02T19:38:21.991Z,2.90
2018-09-02T19:39:21.950Z,3.10
2018-09-02T19:41:17.429Z,3.50
2018-09-02T19:42:16.905Z,3.20
2018-09-02T19:44:12.854Z,3.30
2018-09-02T19:45:12.861Z,3.40